sensor_id;sensor_type;location;lat;lon;timestamp;P1;durP1;ratioP1;P2;durP2;ratioP2
6928;SDS011;3504;52.616;13.238;2023-03-16T00:02:10;9.07;;;5.57;;
6928;SDS011;3504;52.616;13.238;2023-03-16T00:07:11;10.23;;;6.23;;
6928;SDS011;3504;52.616;13.238;2023-03-16T00:12:14;12.83;;;6.90;;
6928;SDS011;3504;52.616;13.238;2023-03-16T00:17:17;12.97;;;7.03;;
6928;SDS011;3504;52.616;13.238;2023-03-16T00:22:20;12.53;;;6.00;;
6928;SDS011;3504;52.616;13.238;2023-03-16T00:27:26;14.57;;;6.80;;
6928;SDS011;3504;52.616;13.238;2023-03-16T00:32:28;11.50;;;6.37;;
6928;SDS011;3504;52.616;13.238;2023-03-16T00:37:31;15.47;;;7.17;;
6928;SDS011;3504;52.616;13.238;2023-03-16T00:42:35;13.00;;;5.70;;
6928;SDS011;3504;52.616;13.238;2023-03-16T00:47:36;12.73;;;6.20;;
6928;SDS011;3504;52.616;13.238;2023-03-16T00:52:36;13.77;;;5.03;;
6928;SDS011;3504;52.616;13.238;2023-03-16T00:57:37;9.33;;;4.87;;
6928;SDS011;3504;52.616;13.238;2023-03-16T01:02:38;9.23;;;4.60;;
6928;SDS011;3504;52.616;13.238;2023-03-16T01:07:39;8.47;;;4.63;;
6928;SDS011;3504;52.616;13.238;2023-03-16T01:12:40;10.13;;;4.43;;
6928;SDS011;3504;52.616;13.238;2023-03-16T01:17:44;7.13;;;4.50;;
6928;SDS011;3504;52.616;13.238;2023-03-16T01:22:46;9.43;;;5.07;;
6928;SDS011;3504;52.616;13.238;2023-03-16T01:27:47;8.00;;;4.43;;
6928;SDS011;3504;52.616;13.238;2023-03-16T01:32:47;10.73;;;5.47;;
6928;SDS011;3504;52.616;13.238;2023-03-16T01:37:48;8.10;;;4.60;;
6928;SDS011;3504;52.616;13.238;2023-03-16T01:42:59;9.87;;;4.57;;
6928;SDS011;3504;52.616;13.238;2023-03-16T01:48:04;9.97;;;4.13;;
6928;SDS011;3504;52.616;13.238;2023-03-16T01:53:05;9.53;;;4.63;;
6928;SDS011;3504;52.616;13.238;2023-03-16T01:58:06;9.70;;;4.80;;
6928;SDS011;3504;52.616;13.238;2023-03-16T02:03:08;8.13;;;3.97;;
6928;SDS011;3504;52.616;13.238;2023-03-16T02:08:36;11.40;;;4.63;;
6928;SDS011;3504;52.616;13.238;2023-03-16T02:13:38;6.43;;;3.87;;
6928;SDS011;3504;52.616;13.238;2023-03-16T02:18:39;7.50;;;3.70;;
6928;SDS011;3504;52.616;13.238;2023-03-16T02:23:40;6.17;;;3.43;;
6928;SDS011;3504;52.616;13.238;2023-03-16T02:28:52;11.50;;;5.60;;
6928;SDS011;3504;52.616;13.238;2023-03-16T02:34:21;10.60;;;5.93;;
6928;SDS011;3504;52.616;13.238;2023-03-16T02:39:22;9.20;;;5.10;;
6928;SDS011;3504;52.616;13.238;2023-03-16T02:44:33;11.07;;;5.27;;
6928;SDS011;3504;52.616;13.238;2023-03-16T02:49:39;9.17;;;4.47;;
6928;SDS011;3504;52.616;13.238;2023-03-16T02:54:42;10.93;;;5.10;;
6928;SDS011;3504;52.616;13.238;2023-03-16T02:59:43;5.80;;;4.17;;
6928;SDS011;3504;52.616;13.238;2023-03-16T03:04:44;9.53;;;4.10;;
6928;SDS011;3504;52.616;13.238;2023-03-16T03:09:45;7.57;;;4.43;;
6928;SDS011;3504;52.616;13.238;2023-03-16T03:14:45;10.07;;;3.57;;
6928;SDS011;3504;52.616;13.238;2023-03-16T03:19:50;7.73;;;3.80;;
6928;SDS011;3504;52.616;13.238;2023-03-16T03:24:51;8.57;;;3.90;;
6928;SDS011;3504;52.616;13.238;2023-03-16T03:29:53;6.23;;;3.80;;
6928;SDS011;3504;52.616;13.238;2023-03-16T03:34:54;8.00;;;3.20;;
6928;SDS011;3504;52.616;13.238;2023-03-16T03:39:54;7.13;;;3.70;;
6928;SDS011;3504;52.616;13.238;2023-03-16T03:44:55;7.67;;;3.80;;
6928;SDS011;3504;52.616;13.238;2023-03-16T03:49:56;5.60;;;3.60;;
6928;SDS011;3504;52.616;13.238;2023-03-16T03:54:57;8.47;;;4.17;;
6928;SDS011;3504;52.616;13.238;2023-03-16T03:59:58;16.30;;;6.53;;
6928;SDS011;3504;52.616;13.238;2023-03-16T04:05:16;11.30;;;5.00;;
6928;SDS011;3504;52.616;13.238;2023-03-16T04:10:16;8.10;;;4.50;;
6928;SDS011;3504;52.616;13.238;2023-03-16T04:15:17;6.33;;;3.97;;
6928;SDS011;3504;52.616;13.238;2023-03-16T04:20:32;7.73;;;4.30;;
6928;SDS011;3504;52.616;13.238;2023-03-16T04:25:32;10.67;;;3.97;;
6928;SDS011;3504;52.616;13.238;2023-03-16T04:30:38;7.30;;;4.73;;
6928;SDS011;3504;52.616;13.238;2023-03-16T04:35:48;5.63;;;3.47;;
6928;SDS011;3504;52.616;13.238;2023-03-16T04:40:50;7.53;;;3.97;;
6928;SDS011;3504;52.616;13.238;2023-03-16T04:45:54;9.97;;;3.50;;
6928;SDS011;3504;52.616;13.238;2023-03-16T04:50:57;6.00;;;3.63;;
6928;SDS011;3504;52.616;13.238;2023-03-16T04:56:00;8.63;;;3.90;;
6928;SDS011;3504;52.616;13.238;2023-03-16T05:01:03;8.57;;;3.93;;
6928;SDS011;3504;52.616;13.238;2023-03-16T05:06:05;8.53;;;4.13;;
6928;SDS011;3504;52.616;13.238;2023-03-16T05:11:08;10.83;;;4.17;;
6928;SDS011;3504;52.616;13.238;2023-03-16T05:16:17;7.50;;;3.60;;
6928;SDS011;3504;52.616;13.238;2023-03-16T05:21:19;6.67;;;3.53;;
6928;SDS011;3504;52.616;13.238;2023-03-16T05:26:30;5.10;;;3.37;;
6928;SDS011;3504;52.616;13.238;2023-03-16T05:31:31;9.77;;;3.90;;
6928;SDS011;3504;52.616;13.238;2023-03-16T05:36:33;7.53;;;3.30;;
6928;SDS011;3504;52.616;13.238;2023-03-16T05:41:40;5.47;;;3.27;;
6928;SDS011;3504;52.616;13.238;2023-03-16T05:47:11;9.20;;;3.37;;
6928;SDS011;3504;52.616;13.238;2023-03-16T05:52:16;7.03;;;3.23;;
6928;SDS011;3504;52.616;13.238;2023-03-16T05:57:17;5.40;;;3.43;;
6928;SDS011;3504;52.616;13.238;2023-03-16T06:02:23;6.67;;;3.33;;
6928;SDS011;3504;52.616;13.238;2023-03-16T06:07:24;10.53;;;3.97;;
6928;SDS011;3504;52.616;13.238;2023-03-16T06:12:28;7.77;;;3.93;;
6928;SDS011;3504;52.616;13.238;2023-03-16T06:17:29;8.53;;;3.80;;
6928;SDS011;3504;52.616;13.238;2023-03-16T06:22:30;12.10;;;4.20;;
6928;SDS011;3504;52.616;13.238;2023-03-16T06:27:31;9.23;;;4.03;;
6928;SDS011;3504;52.616;13.238;2023-03-16T06:32:41;10.63;;;4.73;;
6928;SDS011;3504;52.616;13.238;2023-03-16T06:37:41;9.93;;;4.50;;
6928;SDS011;3504;52.616;13.238;2023-03-16T06:43:00;12.33;;;4.90;;
6928;SDS011;3504;52.616;13.238;2023-03-16T06:48:02;13.93;;;7.57;;
6928;SDS011;3504;52.616;13.238;2023-03-16T06:53:03;14.37;;;7.63;;
6928;SDS011;3504;52.616;13.238;2023-03-16T06:58:06;18.30;;;7.30;;
6928;SDS011;3504;52.616;13.238;2023-03-16T07:03:08;12.73;;;6.20;;
6928;SDS011;3504;52.616;13.238;2023-03-16T07:08:11;10.07;;;6.20;;
6928;SDS011;3504;52.616;13.238;2023-03-16T07:13:14;12.10;;;5.27;;
6928;SDS011;3504;52.616;13.238;2023-03-16T07:18:15;7.43;;;4.40;;
6928;SDS011;3504;52.616;13.238;2023-03-16T07:23:17;6.83;;;3.57;;
6928;SDS011;3504;52.616;13.238;2023-03-16T07:28:19;11.27;;;3.40;;
6928;SDS011;3504;52.616;13.238;2023-03-16T07:33:20;7.63;;;3.30;;
6928;SDS011;3504;52.616;13.238;2023-03-16T07:38:22;7.67;;;2.97;;
6928;SDS011;3504;52.616;13.238;2023-03-16T07:43:24;14.00;;;3.57;;
6928;SDS011;3504;52.616;13.238;2023-03-16T07:48:29;5.47;;;2.50;;
6928;SDS011;3504;52.616;13.238;2023-03-16T07:53:33;10.60;;;2.50;;
6928;SDS011;3504;52.616;13.238;2023-03-16T07:58:47;8.50;;;3.33;;
6928;SDS011;3504;52.616;13.238;2023-03-16T08:03:48;9.70;;;4.23;;
6928;SDS011;3504;52.616;13.238;2023-03-16T08:08:49;8.83;;;3.27;;
6928;SDS011;3504;52.616;13.238;2023-03-16T08:13:57;7.37;;;3.00;;
6928;SDS011;3504;52.616;13.238;2023-03-16T08:19:07;6.33;;;2.87;;
6928;SDS011;3504;52.616;13.238;2023-03-16T08:24:08;5.47;;;2.73;;
6928;SDS011;3504;52.616;13.238;2023-03-16T08:29:11;9.57;;;2.60;;
6928;SDS011;3504;52.616;13.238;2023-03-16T08:34:12;4.37;;;2.10;;
6928;SDS011;3504;52.616;13.238;2023-03-16T08:39:17;5.57;;;2.53;;
6928;SDS011;3504;52.616;13.238;2023-03-16T08:44:20;5.43;;;2.10;;
6928;SDS011;3504;52.616;13.238;2023-03-16T08:49:23;5.67;;;1.73;;
6928;SDS011;3504;52.616;13.238;2023-03-16T08:54:33;4.13;;;1.67;;
6928;SDS011;3504;52.616;13.238;2023-03-16T08:59:33;4.60;;;1.70;;
6928;SDS011;3504;52.616;13.238;2023-03-16T09:04:34;3.23;;;1.73;;
6928;SDS011;3504;52.616;13.238;2023-03-16T09:09:34;4.67;;;1.93;;
6928;SDS011;3504;52.616;13.238;2023-03-16T09:14:35;7.73;;;2.10;;
6928;SDS011;3504;52.616;13.238;2023-03-16T09:19:37;4.17;;;1.67;;
6928;SDS011;3504;52.616;13.238;2023-03-16T09:24:38;5.97;;;2.03;;
6928;SDS011;3504;52.616;13.238;2023-03-16T09:29:38;3.77;;;1.53;;
6928;SDS011;3504;52.616;13.238;2023-03-16T09:34:40;4.73;;;1.53;;
6928;SDS011;3504;52.616;13.238;2023-03-16T09:39:41;6.20;;;1.60;;
6928;SDS011;3504;52.616;13.238;2023-03-16T09:44:48;6.43;;;1.83;;
6928;SDS011;3504;52.616;13.238;2023-03-16T09:50:06;7.67;;;2.00;;
6928;SDS011;3504;52.616;13.238;2023-03-16T09:55:27;5.30;;;1.70;;
6928;SDS011;3504;52.616;13.238;2023-03-16T10:00:33;4.40;;;1.50;;
6928;SDS011;3504;52.616;13.238;2023-03-16T10:05:40;3.93;;;1.67;;
6928;SDS011;3504;52.616;13.238;2023-03-16T10:16:20;6.67;;;1.50;;
6928;SDS011;3504;52.616;13.238;2023-03-16T10:21:40;3.30;;;1.37;;
6928;SDS011;3504;52.616;13.238;2023-03-16T10:26:42;2.93;;;1.40;;
6928;SDS011;3504;52.616;13.238;2023-03-16T10:31:54;6.80;;;1.80;;
6928;SDS011;3504;52.616;13.238;2023-03-16T10:37:00;3.83;;;1.70;;
6928;SDS011;3504;52.616;13.238;2023-03-16T10:42:03;5.07;;;1.90;;
6928;SDS011;3504;52.616;13.238;2023-03-16T10:47:04;4.17;;;1.60;;
6928;SDS011;3504;52.616;13.238;2023-03-16T10:57:32;4.70;;;1.63;;
6928;SDS011;3504;52.616;13.238;2023-03-16T11:02:35;5.03;;;1.80;;
6928;SDS011;3504;52.616;13.238;2023-03-16T11:07:35;3.90;;;1.60;;
6928;SDS011;3504;52.616;13.238;2023-03-16T11:12:36;3.83;;;1.33;;
6928;SDS011;3504;52.616;13.238;2023-03-16T11:17:38;3.10;;;1.80;;
6928;SDS011;3504;52.616;13.238;2023-03-16T11:22:44;4.87;;;2.07;;
6928;SDS011;3504;52.616;13.238;2023-03-16T11:27:51;5.10;;;1.70;;
6928;SDS011;3504;52.616;13.238;2023-03-16T11:33:00;4.33;;;1.40;;
6928;SDS011;3504;52.616;13.238;2023-03-16T11:38:13;3.33;;;1.67;;
6928;SDS011;3504;52.616;13.238;2023-03-16T11:54:24;2.50;;;1.50;;
6928;SDS011;3504;52.616;13.238;2023-03-16T12:00:01;6.53;;;1.97;;
6928;SDS011;3504;52.616;13.238;2023-03-16T12:11:09;5.63;;;2.00;;
6928;SDS011;3504;52.616;13.238;2023-03-16T12:16:28;6.73;;;2.03;;
6928;SDS011;3504;52.616;13.238;2023-03-16T12:21:33;6.17;;;2.07;;
6928;SDS011;3504;52.616;13.238;2023-03-16T12:26:39;4.13;;;2.40;;
6928;SDS011;3504;52.616;13.238;2023-03-16T12:31:57;4.67;;;1.60;;
6928;SDS011;3504;52.616;13.238;2023-03-16T12:53:40;3.73;;;1.30;;
6928;SDS011;3504;52.616;13.238;2023-03-16T12:58:53;4.77;;;1.77;;
6928;SDS011;3504;52.616;13.238;2023-03-16T13:04:00;2.97;;;1.53;;
6928;SDS011;3504;52.616;13.238;2023-03-16T13:09:10;4.50;;;1.80;;
6928;SDS011;3504;52.616;13.238;2023-03-16T13:14:35;4.87;;;1.40;;
6928;SDS011;3504;52.616;13.238;2023-03-16T13:19:42;2.63;;;1.40;;
6928;SDS011;3504;52.616;13.238;2023-03-16T13:24:49;3.70;;;1.60;;
6928;SDS011;3504;52.616;13.238;2023-03-16T13:30:25;1.87;;;1.30;;
6928;SDS011;3504;52.616;13.238;2023-03-16T13:35:32;2.17;;;1.40;;
6928;SDS011;3504;52.616;13.238;2023-03-16T13:40:32;2.30;;;1.20;;
6928;SDS011;3504;52.616;13.238;2023-03-16T13:45:36;1.27;;;1.17;;
6928;SDS011;3504;52.616;13.238;2023-03-16T13:50:37;4.40;;;1.70;;
6928;SDS011;3504;52.616;13.238;2023-03-16T13:55:42;2.87;;;1.50;;
6928;SDS011;3504;52.616;13.238;2023-03-16T14:00:46;1.40;;;1.27;;
6928;SDS011;3504;52.616;13.238;2023-03-16T14:05:46;5.27;;;1.60;;
6928;SDS011;3504;52.616;13.238;2023-03-16T14:10:47;5.30;;;1.80;;
6928;SDS011;3504;52.616;13.238;2023-03-16T14:15:53;2.60;;;1.27;;
6928;SDS011;3504;52.616;13.238;2023-03-16T14:21:04;4.37;;;1.30;;
6928;SDS011;3504;52.616;13.238;2023-03-16T14:26:14;4.63;;;1.50;;
6928;SDS011;3504;52.616;13.238;2023-03-16T14:31:18;3.33;;;1.50;;
6928;SDS011;3504;52.616;13.238;2023-03-16T14:36:20;2.77;;;1.27;;
6928;SDS011;3504;52.616;13.238;2023-03-16T14:41:21;4.40;;;1.30;;
6928;SDS011;3504;52.616;13.238;2023-03-16T14:46:28;3.00;;;1.50;;
6928;SDS011;3504;52.616;13.238;2023-03-16T14:51:37;3.70;;;1.60;;
6928;SDS011;3504;52.616;13.238;2023-03-16T14:56:39;4.00;;;2.23;;
6928;SDS011;3504;52.616;13.238;2023-03-16T15:01:41;6.20;;;3.20;;
6928;SDS011;3504;52.616;13.238;2023-03-16T15:06:43;3.87;;;1.33;;
6928;SDS011;3504;52.616;13.238;2023-03-16T15:11:44;4.00;;;1.40;;
6928;SDS011;3504;52.616;13.238;2023-03-16T15:16:45;5.30;;;2.23;;
6928;SDS011;3504;52.616;13.238;2023-03-16T15:21:46;4.87;;;1.80;;
6928;SDS011;3504;52.616;13.238;2023-03-16T15:26:46;4.00;;;1.90;;
6928;SDS011;3504;52.616;13.238;2023-03-16T15:31:47;2.73;;;1.70;;
6928;SDS011;3504;52.616;13.238;2023-03-16T15:36:47;3.57;;;1.40;;
6928;SDS011;3504;52.616;13.238;2023-03-16T15:41:48;5.33;;;1.17;;
6928;SDS011;3504;52.616;13.238;2023-03-16T15:46:49;4.40;;;2.03;;
6928;SDS011;3504;52.616;13.238;2023-03-16T15:51:50;3.57;;;1.60;;
6928;SDS011;3504;52.616;13.238;2023-03-16T15:56:50;3.63;;;1.50;;
6928;SDS011;3504;52.616;13.238;2023-03-16T16:01:51;1.70;;;1.00;;
6928;SDS011;3504;52.616;13.238;2023-03-16T16:06:52;2.00;;;1.30;;
6928;SDS011;3504;52.616;13.238;2023-03-16T16:11:55;2.63;;;1.03;;
6928;SDS011;3504;52.616;13.238;2023-03-16T16:16:56;2.27;;;1.20;;
6928;SDS011;3504;52.616;13.238;2023-03-16T16:21:57;1.87;;;1.10;;
6928;SDS011;3504;52.616;13.238;2023-03-16T16:26:57;1.63;;;1.13;;
6928;SDS011;3504;52.616;13.238;2023-03-16T16:31:58;1.80;;;1.00;;
6928;SDS011;3504;52.616;13.238;2023-03-16T16:36:59;1.10;;;1.00;;
6928;SDS011;3504;52.616;13.238;2023-03-16T16:42:00;1.67;;;1.03;;
6928;SDS011;3504;52.616;13.238;2023-03-16T16:47:00;2.87;;;1.60;;
6928;SDS011;3504;52.616;13.238;2023-03-16T16:52:02;3.90;;;1.40;;
6928;SDS011;3504;52.616;13.238;2023-03-16T16:57:03;1.97;;;1.30;;
6928;SDS011;3504;52.616;13.238;2023-03-16T17:02:21;3.00;;;1.43;;
6928;SDS011;3504;52.616;13.238;2023-03-16T17:07:31;3.43;;;2.30;;
6928;SDS011;3504;52.616;13.238;2023-03-16T17:12:32;3.80;;;1.80;;
6928;SDS011;3504;52.616;13.238;2023-03-16T17:17:34;2.73;;;1.47;;
6928;SDS011;3504;52.616;13.238;2023-03-16T17:22:36;4.40;;;1.77;;
6928;SDS011;3504;52.616;13.238;2023-03-16T17:27:36;1.63;;;1.27;;
6928;SDS011;3504;52.616;13.238;2023-03-16T17:32:37;5.37;;;1.80;;
6928;SDS011;3504;52.616;13.238;2023-03-16T17:37:38;3.90;;;1.63;;
6928;SDS011;3504;52.616;13.238;2023-03-16T17:42:38;3.27;;;1.67;;
6928;SDS011;3504;52.616;13.238;2023-03-16T17:47:39;3.33;;;1.50;;
6928;SDS011;3504;52.616;13.238;2023-03-16T17:52:39;3.97;;;1.87;;
6928;SDS011;3504;52.616;13.238;2023-03-16T17:57:40;3.50;;;1.73;;
6928;SDS011;3504;52.616;13.238;2023-03-16T18:02:55;3.73;;;2.30;;
6928;SDS011;3504;52.616;13.238;2023-03-16T18:08:16;6.53;;;2.37;;
6928;SDS011;3504;52.616;13.238;2023-03-16T18:13:29;3.87;;;2.47;;
6928;SDS011;3504;52.616;13.238;2023-03-16T18:18:38;7.30;;;2.67;;
6928;SDS011;3504;52.616;13.238;2023-03-16T18:23:41;9.27;;;4.67;;
6928;SDS011;3504;52.616;13.238;2023-03-16T18:28:42;10.23;;;4.80;;
6928;SDS011;3504;52.616;13.238;2023-03-16T18:33:43;7.03;;;3.50;;
6928;SDS011;3504;52.616;13.238;2023-03-16T18:38:46;7.27;;;2.67;;
6928;SDS011;3504;52.616;13.238;2023-03-16T18:43:50;3.90;;;2.10;;
6928;SDS011;3504;52.616;13.238;2023-03-16T18:48:53;6.30;;;2.43;;
6928;SDS011;3504;52.616;13.238;2023-03-16T18:53:59;3.33;;;2.40;;
6928;SDS011;3504;52.616;13.238;2023-03-16T18:58:59;3.97;;;2.50;;
6928;SDS011;3504;52.616;13.238;2023-03-16T19:04:01;4.00;;;2.33;;
6928;SDS011;3504;52.616;13.238;2023-03-16T19:09:16;3.60;;;2.03;;
6928;SDS011;3504;52.616;13.238;2023-03-16T19:14:20;4.70;;;2.43;;
6928;SDS011;3504;52.616;13.238;2023-03-16T19:19:23;4.90;;;2.47;;
6928;SDS011;3504;52.616;13.238;2023-03-16T19:24:25;3.60;;;2.03;;
6928;SDS011;3504;52.616;13.238;2023-03-16T19:29:29;5.37;;;2.23;;
6928;SDS011;3504;52.616;13.238;2023-03-16T19:34:32;3.27;;;2.00;;
6928;SDS011;3504;52.616;13.238;2023-03-16T19:39:32;5.00;;;2.53;;
6928;SDS011;3504;52.616;13.238;2023-03-16T19:44:33;6.90;;;2.77;;
6928;SDS011;3504;52.616;13.238;2023-03-16T19:49:33;4.03;;;2.40;;
6928;SDS011;3504;52.616;13.238;2023-03-16T19:54:34;5.50;;;2.53;;
6928;SDS011;3504;52.616;13.238;2023-03-16T19:59:36;6.80;;;2.50;;
6928;SDS011;3504;52.616;13.238;2023-03-16T20:04:36;5.77;;;1.93;;
6928;SDS011;3504;52.616;13.238;2023-03-16T20:09:37;4.57;;;2.13;;
6928;SDS011;3504;52.616;13.238;2023-03-16T20:14:37;4.17;;;2.47;;
6928;SDS011;3504;52.616;13.238;2023-03-16T20:19:38;4.20;;;2.23;;
6928;SDS011;3504;52.616;13.238;2023-03-16T20:24:39;3.63;;;2.20;;
6928;SDS011;3504;52.616;13.238;2023-03-16T20:29:39;4.30;;;2.10;;
6928;SDS011;3504;52.616;13.238;2023-03-16T20:34:40;4.77;;;2.20;;
6928;SDS011;3504;52.616;13.238;2023-03-16T20:39:41;4.70;;;2.20;;
6928;SDS011;3504;52.616;13.238;2023-03-16T20:44:43;5.17;;;2.37;;
6928;SDS011;3504;52.616;13.238;2023-03-16T20:49:44;4.20;;;2.50;;
6928;SDS011;3504;52.616;13.238;2023-03-16T20:54:44;4.57;;;2.53;;
6928;SDS011;3504;52.616;13.238;2023-03-16T20:59:46;3.40;;;2.30;;
6928;SDS011;3504;52.616;13.238;2023-03-16T21:04:48;3.93;;;2.80;;
6928;SDS011;3504;52.616;13.238;2023-03-16T21:09:48;3.17;;;2.47;;
6928;SDS011;3504;52.616;13.238;2023-03-16T21:14:49;5.93;;;2.47;;
6928;SDS011;3504;52.616;13.238;2023-03-16T21:19:50;6.00;;;2.37;;
6928;SDS011;3504;52.616;13.238;2023-03-16T21:24:51;5.87;;;2.50;;
6928;SDS011;3504;52.616;13.238;2023-03-16T21:29:53;6.27;;;2.90;;
6928;SDS011;3504;52.616;13.238;2023-03-16T21:34:55;5.57;;;3.67;;
6928;SDS011;3504;52.616;13.238;2023-03-16T21:39:56;4.57;;;2.90;;
6928;SDS011;3504;52.616;13.238;2023-03-16T21:44:57;6.83;;;3.43;;
6928;SDS011;3504;52.616;13.238;2023-03-16T21:49:57;6.23;;;3.40;;
6928;SDS011;3504;52.616;13.238;2023-03-16T21:54:58;3.17;;;2.77;;
6928;SDS011;3504;52.616;13.238;2023-03-16T21:59:59;6.53;;;3.27;;
6928;SDS011;3504;52.616;13.238;2023-03-16T22:05:00;6.47;;;3.70;;
6928;SDS011;3504;52.616;13.238;2023-03-16T22:10:00;5.67;;;3.43;;
6928;SDS011;3504;52.616;13.238;2023-03-16T22:15:01;6.90;;;3.30;;
6928;SDS011;3504;52.616;13.238;2023-03-16T22:20:02;7.53;;;3.87;;
6928;SDS011;3504;52.616;13.238;2023-03-16T22:25:16;6.93;;;3.73;;
6928;SDS011;3504;52.616;13.238;2023-03-16T22:30:24;7.40;;;3.77;;
6928;SDS011;3504;52.616;13.238;2023-03-16T22:35:28;7.47;;;3.83;;
6928;SDS011;3504;52.616;13.238;2023-03-16T22:40:36;5.53;;;3.50;;
6928;SDS011;3504;52.616;13.238;2023-03-16T22:45:38;5.70;;;3.33;;
6928;SDS011;3504;52.616;13.238;2023-03-16T22:50:38;7.40;;;3.63;;
6928;SDS011;3504;52.616;13.238;2023-03-16T22:55:39;6.17;;;3.63;;
6928;SDS011;3504;52.616;13.238;2023-03-16T23:00:39;9.57;;;3.57;;
6928;SDS011;3504;52.616;13.238;2023-03-16T23:05:41;7.00;;;3.77;;
6928;SDS011;3504;52.616;13.238;2023-03-16T23:10:42;5.47;;;3.77;;
6928;SDS011;3504;52.616;13.238;2023-03-16T23:15:43;5.73;;;3.30;;
6928;SDS011;3504;52.616;13.238;2023-03-16T23:20:47;8.40;;;3.87;;
6928;SDS011;3504;52.616;13.238;2023-03-16T23:25:48;5.03;;;3.57;;
6928;SDS011;3504;52.616;13.238;2023-03-16T23:30:48;5.57;;;3.70;;
6928;SDS011;3504;52.616;13.238;2023-03-16T23:35:49;6.97;;;4.17;;
6928;SDS011;3504;52.616;13.238;2023-03-16T23:40:50;6.30;;;3.70;;
6928;SDS011;3504;52.616;13.238;2023-03-16T23:45:50;4.60;;;3.67;;
6928;SDS011;3504;52.616;13.238;2023-03-16T23:50:51;7.77;;;4.10;;
6928;SDS011;3504;52.616;13.238;2023-03-16T23:55:54;7.33;;;4.00;;
